createdAt,value
2022-09-17T00:01:20.914Z,72.75
2022-09-17T00:04:00.306Z,72.76
2022-09-17T00:06:34.028Z,72.58
2022-09-17T00:09:07.081Z,72.70
2022-09-17T00:11:41.225Z,72.57
2022-09-17T00:14:16.216Z,72.49
2022-09-17T00:16:49.330Z,72.89
2022-09-17T00:19:23.020Z,72.86
2022-09-17T00:21:54.569Z,73.04
2022-09-17T00:24:26.146Z,72.75
2022-09-17T00:26:57.746Z,73.12
2022-09-17T00:29:29.403Z,73.01
2022-09-17T00:32:01.103Z,73.04
2022-09-17T00:34:32.734Z,73.13
2022-09-17T00:37:07.284Z,73.17
2022-09-17T00:39:38.919Z,73.38
2022-09-17T00:42:13.058Z,73.24
2022-09-17T00:44:53.398Z,73.24
2022-09-17T00:47:29.018Z,72.79
2022-09-17T00:50:15.202Z,72.79
2022-09-17T00:52:51.369Z,72.25
2022-09-17T00:55:31.622Z,72.30
2022-09-17T00:58:06.146Z,72.33
2022-09-17T01:00:37.911Z,72.31
2022-09-17T01:03:09.810Z,71.87
2022-09-17T01:05:50.019Z,72.12
2022-09-17T01:08:35.400Z,72.39
2022-09-17T01:11:18.950Z,72.32
2022-09-17T01:14:11.817Z,72.11
2022-09-17T01:16:58.123Z,72.20
2022-09-17T01:19:58.195Z,72.46
2022-09-17T01:23:14.614Z,72.19
2022-09-17T01:26:35.522Z,71.97
2022-09-17T01:29:25.316Z,72.09
2022-09-17T01:32:12.767Z,72.14
2022-09-17T01:35:24.773Z,72.04
2022-09-17T01:38:11.957Z,72.27
2022-09-17T01:40:56.458Z,72.15
2022-09-17T01:43:36.261Z,72.25
2022-09-17T01:46:17.209Z,72.21
2022-09-17T01:48:52.092Z,72.06
2022-09-17T01:51:26.527Z,72.10
2022-09-17T01:54:07.462Z,72.54
2022-09-17T01:56:56.326Z,72.75
2022-09-17T01:59:33.738Z,72.52
2022-09-17T02:02:18.502Z,72.53
2022-09-17T02:05:22.269Z,72.58
2022-09-17T02:07:59.193Z,72.47
2022-09-17T02:10:36.926Z,72.44
2022-09-17T02:13:22.781Z,72.33
2022-09-17T02:16:02.219Z,72.18
2022-09-17T02:18:46.576Z,72.43
2022-09-17T02:21:28.897Z,72.24
2022-09-17T02:24:23.062Z,72.04
2022-09-17T02:27:11.671Z,72.75
2022-09-17T02:29:44.609Z,72.71
2022-09-17T02:32:16.265Z,72.88
2022-09-17T02:34:47.853Z,72.97
2022-09-17T02:37:19.575Z,72.80
2022-09-17T02:39:51.231Z,72.89
2022-09-17T02:42:32.320Z,73.02
2022-09-17T02:45:25.366Z,73.10
2022-09-17T02:48:32.559Z,72.93
2022-09-17T02:51:35.239Z,73.13
2022-09-17T02:54:18.551Z,72.75
2022-09-17T02:57:05.031Z,72.95
2022-09-17T03:00:09.492Z,73.02
2022-09-17T03:02:47.250Z,72.87
2022-09-17T03:05:21.871Z,72.97
2022-09-17T03:07:56.799Z,73.19
2022-09-17T03:10:30.790Z,72.67
2022-09-17T03:13:02.427Z,72.48
2022-09-17T03:15:34.167Z,72.35
2022-09-17T03:18:05.815Z,71.96
2022-09-17T03:20:37.695Z,71.56
2022-09-17T03:23:09.258Z,70.91
2022-09-17T03:25:40.899Z,70.53
2022-09-17T03:28:16.594Z,70.29
2022-09-17T03:30:48.201Z,70.35
2022-09-17T03:33:20.134Z,70.14
2022-09-17T03:35:51.759Z,70.47
2022-09-17T03:38:24.054Z,70.12
2022-09-17T03:41:04.082Z,69.66
2022-09-17T03:43:35.734Z,69.25
2022-09-17T03:46:07.783Z,69.43
2022-09-17T03:48:39.774Z,69.21
2022-09-17T03:51:11.689Z,68.97
2022-09-17T03:53:43.316Z,68.88
2022-09-17T03:56:15.025Z,68.76
2022-09-17T03:58:46.601Z,68.75
2022-09-17T04:01:18.407Z,68.69
2022-09-17T04:03:50.070Z,68.81
2022-09-17T04:06:21.903Z,68.44
2022-09-17T04:08:53.606Z,68.45
2022-09-17T04:11:25.290Z,68.22
2022-09-17T04:13:56.952Z,68.16
2022-09-17T04:16:28.647Z,67.95
2022-09-17T04:19:00.447Z,68.45
2022-09-17T04:21:32.225Z,68.59
2022-09-17T04:24:04.034Z,68.54
2022-09-17T04:26:35.663Z,68.44
2022-09-17T04:29:07.302Z,68.29
2022-09-17T04:31:39.023Z,68.29
2022-09-17T04:34:10.611Z,68.22
2022-09-17T04:36:42.208Z,68.14
2022-09-17T04:39:13.799Z,67.76
2022-09-17T04:41:45.781Z,67.79
2022-09-17T04:44:17.402Z,67.89
2022-09-17T04:46:49.046Z,68.04
2022-09-17T04:49:20.624Z,68.40
2022-09-17T04:51:52.215Z,68.65
2022-09-17T04:54:24.237Z,68.40
2022-09-17T04:56:55.846Z,68.58
2022-09-17T04:59:27.425Z,68.24
2022-09-17T05:02:01.067Z,68.06
2022-09-17T05:04:32.677Z,67.94
2022-09-17T05:07:04.473Z,67.62
2022-09-17T05:09:36.546Z,67.56
2022-09-17T05:12:08.133Z,67.61
2022-09-17T05:14:42.538Z,67.54
2022-09-17T05:17:14.167Z,67.68
2022-09-17T05:19:46.193Z,67.59
2022-09-17T05:22:21.425Z,67.48
2022-09-17T05:24:53.362Z,67.44
2022-09-17T05:27:25.016Z,67.14
2022-09-17T05:29:56.579Z,67.03
2022-09-17T05:32:28.233Z,66.93
2022-09-17T05:35:02.548Z,66.59
2022-09-17T05:37:37.508Z,66.44
2022-09-17T05:40:10.273Z,66.52
2022-09-17T05:42:42.046Z,66.46
2022-09-17T05:45:13.954Z,66.17
2022-09-17T05:47:45.565Z,66.00
2022-09-17T05:50:17.349Z,65.89
2022-09-17T05:52:49.104Z,65.71
2022-09-17T05:55:22.495Z,65.74
2022-09-17T05:57:54.160Z,65.80
2022-09-17T06:00:25.848Z,65.88
2022-09-17T06:02:57.960Z,66.01
2022-09-17T06:05:29.590Z,65.92
2022-09-17T06:08:01.301Z,65.72
2022-09-17T06:10:39.377Z,65.75
2022-09-17T06:13:11.030Z,65.83
2022-09-17T06:15:42.625Z,65.66
2022-09-17T06:18:14.256Z,65.69
2022-09-17T06:20:56.732Z,65.88
2022-09-17T06:23:33.171Z,66.05
2022-09-17T06:26:06.246Z,66.70
2022-09-17T06:28:41.521Z,66.97
2022-09-17T06:31:14.078Z,66.61
2022-09-17T06:33:45.811Z,66.72
2022-09-17T06:36:17.509Z,67.21
2022-09-17T06:38:49.159Z,67.39
2022-09-17T06:41:20.933Z,67.64
2022-09-17T06:43:56.948Z,67.77
2022-09-17T06:46:28.582Z,67.57
2022-09-17T06:49:00.291Z,67.54
2022-09-17T06:51:31.901Z,67.63
2022-09-17T06:54:03.517Z,68.29
2022-09-17T06:56:35.154Z,68.04
2022-09-17T06:59:06.741Z,68.15
2022-09-17T07:01:38.385Z,68.08
2022-09-17T07:04:10.107Z,67.87
2022-09-17T07:06:43.490Z,68.00
2022-09-17T07:09:15.086Z,68.17
2022-09-17T07:11:46.671Z,68.27
2022-09-17T07:14:19.210Z,68.29
2022-09-17T07:16:52.778Z,68.17
2022-09-17T07:19:24.436Z,68.03
2022-09-17T07:21:56.012Z,68.19
2022-09-17T07:24:32.623Z,67.84
2022-09-17T07:27:04.666Z,67.50
2022-09-17T07:29:36.783Z,67.00
2022-09-17T07:32:08.440Z,67.29
2022-09-17T07:34:40.166Z,67.07
2022-09-17T07:37:11.717Z,67.19
2022-09-17T07:39:44.134Z,67.20
2022-09-17T07:42:15.766Z,66.56
2022-09-17T07:44:47.666Z,66.91
2022-09-17T07:47:20.027Z,66.96
2022-09-17T07:49:51.669Z,66.97
2022-09-17T07:52:23.273Z,66.52
2022-09-17T07:54:54.850Z,66.32
2022-09-17T07:57:26.841Z,66.22
2022-09-17T07:59:58.494Z,66.18
2022-09-17T08:02:30.210Z,66.26
2022-09-17T08:05:04.924Z,65.47
2022-09-17T08:07:36.383Z,65.04
2022-09-17T08:10:08.339Z,64.39
2022-09-17T08:12:39.917Z,63.23
2022-09-17T08:15:11.532Z,63.07
2022-09-17T08:17:46.949Z,62.58
2022-09-17T08:20:19.200Z,62.22
2022-09-17T08:22:50.753Z,62.42
2022-09-17T08:25:22.444Z,61.55
2022-09-17T08:27:57.774Z,61.76
2022-09-17T08:30:29.411Z,61.46
2022-09-17T08:33:00.988Z,61.01
2022-09-17T08:35:32.617Z,61.28
2022-09-17T08:38:04.338Z,60.43
2022-09-17T08:40:45.926Z,60.76
2022-09-17T08:43:19.657Z,61.54
2022-09-17T08:45:59.225Z,60.89
2022-09-17T08:49:06.654Z,61.64
2022-09-17T08:51:56.427Z,61.45
2022-09-17T08:54:36.562Z,64.94
2022-09-17T08:57:34.411Z,65.13
2022-09-17T09:00:13.649Z,63.17
2022-09-17T09:03:12.930Z,62.02
2022-09-17T09:05:48.116Z,60.94
2022-09-17T09:08:30.677Z,61.26
2022-09-17T09:11:11.489Z,60.65
2022-09-17T09:13:53.179Z,60.66
2022-09-17T09:16:27.192Z,60.74
2022-09-17T09:19:22.014Z,61.16
2022-09-17T09:22:13.095Z,62.24
2022-09-17T09:24:54.236Z,62.55
2022-09-17T09:27:32.836Z,62.32
2022-09-17T09:30:10.540Z,63.27
2022-09-17T09:32:52.439Z,63.30
2022-09-17T09:35:27.672Z,64.21
2022-09-17T09:38:35.646Z,66.19
2022-09-17T09:41:22.453Z,64.55
2022-09-17T09:44:04.819Z,63.37
2022-09-17T09:46:48.132Z,63.35
2022-09-17T09:49:43.356Z,63.61
2022-09-17T09:52:32.810Z,64.16
2022-09-17T09:55:38.608Z,64.15
2022-09-17T09:58:35.662Z,63.68
2022-09-17T10:01:16.122Z,64.19
2022-09-17T10:03:51.883Z,64.29
2022-09-17T10:06:24.033Z,63.98
2022-09-17T10:08:55.554Z,63.81
2022-09-17T10:11:29.450Z,63.80
2022-09-17T10:14:22.867Z,63.98
2022-09-17T10:17:15.373Z,64.95
2022-09-17T10:20:00.180Z,65.24
2022-09-17T10:22:36.922Z,64.45
2022-09-17T10:25:28.647Z,64.71
2022-09-17T10:28:04.571Z,64.66
2022-09-17T10:30:36.302Z,64.78
2022-09-17T10:33:36.909Z,64.95
2022-09-17T10:36:13.541Z,65.05
2022-09-17T10:38:46.355Z,64.45
2022-09-17T10:41:24.916Z,63.19
2022-09-17T10:43:56.486Z,61.98
2022-09-17T10:46:33.802Z,62.58
2022-09-17T10:49:18.065Z,62.10
2022-09-17T10:51:49.682Z,61.50
2022-09-17T10:54:58.395Z,60.30
2022-09-17T10:57:55.195Z,60.70
2022-09-17T11:00:33.150Z,59.96
2022-09-17T11:03:31.605Z,58.02
2022-09-17T11:06:21.678Z,57.07
2022-09-17T11:09:05.139Z,56.61
2022-09-17T11:12:12.672Z,54.75
2022-09-17T11:14:53.359Z,55.97
2022-09-17T11:17:43.882Z,55.52
2022-09-17T11:20:32.581Z,55.91
2022-09-17T11:23:23.634Z,56.72
2022-09-17T11:26:00.790Z,56.10
2022-09-17T11:28:53.298Z,56.59
2022-09-17T11:31:35.889Z,55.33
2022-09-17T11:34:29.430Z,55.74
2022-09-17T11:37:12.831Z,55.81
2022-09-17T11:39:49.164Z,55.94
2022-09-17T11:42:30.946Z,54.27
2022-09-17T11:45:39.929Z,52.45
2022-09-17T11:48:20.663Z,53.33
2022-09-17T11:51:05.381Z,53.30
2022-09-17T11:54:06.210Z,53.34
2022-09-17T11:56:44.859Z,53.72
2022-09-17T11:59:30.486Z,53.70
2022-09-17T12:02:09.158Z,54.27
2022-09-17T12:05:09.989Z,54.74
2022-09-17T12:08:15.110Z,55.56
2022-09-17T12:10:53.063Z,56.85
2022-09-17T12:13:30.158Z,57.66
2022-09-17T12:16:24.889Z,57.53
2022-09-17T12:19:16.706Z,55.86
2022-09-17T12:21:55.971Z,56.11
2022-09-17T12:24:32.329Z,55.66
2022-09-17T12:27:30.750Z,54.66
2022-09-17T12:30:13.375Z,53.72
2022-09-17T12:32:59.983Z,53.09
2022-09-17T12:36:03.991Z,53.67
2022-09-17T12:39:02.887Z,53.01
2022-09-17T12:41:40.568Z,53.66
2022-09-17T12:44:35.486Z,53.58
2022-09-17T12:47:38.167Z,52.91
2022-09-17T12:50:31.385Z,53.77
2022-09-17T12:53:27.659Z,53.72
2022-09-17T12:56:22.150Z,53.11
2022-09-17T12:59:05.890Z,55.05
2022-09-17T13:01:58.883Z,55.85
2022-09-17T13:05:04.261Z,55.97
2022-09-17T13:07:54.692Z,54.37
2022-09-17T13:10:52.741Z,54.84
2022-09-17T13:13:27.219Z,57.42
2022-09-17T13:16:25.836Z,58.82
2022-09-17T13:19:16.882Z,59.02
2022-09-17T13:21:55.624Z,59.05
2022-09-17T13:24:31.150Z,59.12
2022-09-17T13:27:04.974Z,59.45
2022-09-17T13:29:46.141Z,58.93
2022-09-17T13:32:32.890Z,58.62
2022-09-17T13:35:13.121Z,59.26
2022-09-17T13:37:56.605Z,58.55
2022-09-17T13:40:38.096Z,58.48
2022-09-17T13:43:12.931Z,58.38
2022-09-17T13:45:59.550Z,58.15
2022-09-17T13:48:36.106Z,58.54
2022-09-17T13:51:33.995Z,57.71
2022-09-17T13:54:08.515Z,58.18
2022-09-17T13:56:48.329Z,58.07
2022-09-17T13:59:24.754Z,58.73
2022-09-17T14:01:57.926Z,58.37
2022-09-17T14:04:32.417Z,58.09
2022-09-17T14:07:23.953Z,58.13
2022-09-17T14:10:25.856Z,58.17
2022-09-17T14:13:20.315Z,56.89
2022-09-17T14:15:58.211Z,55.49
2022-09-17T14:18:34.148Z,55.51
2022-09-17T14:21:15.645Z,53.05
2022-09-17T14:23:54.595Z,51.58
2022-09-17T14:26:50.703Z,52.39
2022-09-17T14:30:09.724Z,51.38
2022-09-17T14:33:03.540Z,51.33
2022-09-17T14:35:40.148Z,51.23
2022-09-17T14:38:22.746Z,51.55
2022-09-17T14:41:04.968Z,52.80
2022-09-17T14:43:42.342Z,52.90
2022-09-17T14:46:20.431Z,51.55
2022-09-17T14:48:52.145Z,52.38
2022-09-17T14:51:29.532Z,50.85
2022-09-17T14:54:05.125Z,50.90
2022-09-17T14:56:45.600Z,51.43
2022-09-17T14:59:43.353Z,49.98
2022-09-17T15:02:33.675Z,49.44
2022-09-17T15:05:17.695Z,49.09
2022-09-17T15:07:49.621Z,50.22
2022-09-17T15:10:22.698Z,49.71
2022-09-17T15:12:58.395Z,50.19
2022-09-17T15:15:30.349Z,49.80
2022-09-17T15:18:01.972Z,49.14
2022-09-17T15:20:33.678Z,50.18
2022-09-17T15:23:20.394Z,49.92
2022-09-17T15:25:58.878Z,50.80
2022-09-17T15:28:43.524Z,51.39
2022-09-17T15:31:19.930Z,50.90
2022-09-17T15:33:51.614Z,51.08
2022-09-17T15:36:27.573Z,51.26
2022-09-17T15:38:59.501Z,51.04
2022-09-17T15:41:34.648Z,50.70
2022-09-17T15:44:31.833Z,50.74
2022-09-17T15:47:41.207Z,50.85
2022-09-17T15:50:22.699Z,51.00
2022-09-17T15:53:09.208Z,50.68
2022-09-17T15:55:44.366Z,51.76
2022-09-17T15:58:48.444Z,52.16
2022-09-17T16:01:31.748Z,52.26
2022-09-17T16:04:19.031Z,52.39
2022-09-17T16:06:57.752Z,52.85
2022-09-17T16:09:43.958Z,53.03
2022-09-17T16:12:25.081Z,53.84
2022-09-17T16:14:59.755Z,53.47
2022-09-17T16:17:37.430Z,53.48
2022-09-17T16:20:15.884Z,54.18
2022-09-17T16:22:50.969Z,54.20
2022-09-17T16:25:27.055Z,53.99
2022-09-17T16:28:02.506Z,54.37
2022-09-17T16:30:34.196Z,54.12
2022-09-17T16:33:06.891Z,54.08
2022-09-17T16:35:41.397Z,54.49
2022-09-17T16:38:13.112Z,54.32
2022-09-17T16:40:49.045Z,54.55
2022-09-17T16:43:20.768Z,54.38
2022-09-17T16:46:03.867Z,54.78
2022-09-17T16:48:35.549Z,54.68
2022-09-17T16:51:12.188Z,53.85
2022-09-17T16:53:44.031Z,53.62
2022-09-17T16:56:18.508Z,53.55
2022-09-17T16:58:54.750Z,53.47
2022-09-17T17:01:26.438Z,53.64
2022-09-17T17:04:00.958Z,53.53
2022-09-17T17:06:32.480Z,53.58
2022-09-17T17:09:04.356Z,52.44
2022-09-17T17:11:35.967Z,52.50
2022-09-17T17:14:11.491Z,52.87
2022-09-17T17:16:45.660Z,52.88
2022-09-17T17:19:17.892Z,53.02
2022-09-17T17:21:52.920Z,53.38
2022-09-17T17:24:24.638Z,52.83
2022-09-17T17:26:56.247Z,52.36
2022-09-17T17:29:27.862Z,52.48
2022-09-17T17:31:59.455Z,53.15
2022-09-17T17:34:31.630Z,53.46
2022-09-17T17:37:03.195Z,52.85
2022-09-17T17:39:34.835Z,53.46
2022-09-17T17:42:07.106Z,53.30
2022-09-17T17:44:38.786Z,53.73
2022-09-17T17:47:10.380Z,54.04
2022-09-17T17:49:41.994Z,53.89
2022-09-17T17:52:13.589Z,53.99
2022-09-17T17:54:45.247Z,54.72
2022-09-17T17:57:16.882Z,54.23
2022-09-17T17:59:48.509Z,55.07
2022-09-17T18:02:20.174Z,54.74
2022-09-17T18:04:51.903Z,54.99
2022-09-17T18:07:23.543Z,55.37
2022-09-17T18:09:55.164Z,55.08
2022-09-17T18:12:27.274Z,55.74
2022-09-17T18:14:59.209Z,55.48
2022-09-17T18:17:31.547Z,55.72
2022-09-17T18:20:06.750Z,56.06
2022-09-17T18:22:38.413Z,56.03
2022-09-17T18:25:10.161Z,55.43
2022-09-17T18:27:43.010Z,55.46
2022-09-17T18:30:14.824Z,55.35
2022-09-17T18:32:49.118Z,55.63
2022-09-17T18:35:20.944Z,55.59
2022-09-17T18:37:52.553Z,56.22
2022-09-17T18:40:24.222Z,55.51
2022-09-17T18:42:58.997Z,56.42
2022-09-17T18:45:30.800Z,56.23
2022-09-17T18:48:05.424Z,56.04
2022-09-17T18:50:36.929Z,55.92
2022-09-17T18:53:08.523Z,56.22
2022-09-17T18:55:46.730Z,55.91
2022-09-17T18:58:21.274Z,56.42
2022-09-17T19:00:53.107Z,56.44
2022-09-17T19:03:24.849Z,56.88
2022-09-17T19:06:00.151Z,57.20
2022-09-17T19:08:32.363Z,57.13
2022-09-17T19:11:07.303Z,57.37
2022-09-17T19:13:44.289Z,56.93
2022-09-17T19:16:19.188Z,56.81
2022-09-17T19:18:53.069Z,57.32
2022-09-17T19:21:24.803Z,57.57
2022-09-17T19:23:56.401Z,56.99
2022-09-17T19:26:33.292Z,57.25
2022-09-17T19:29:20.004Z,57.51
2022-09-17T19:31:54.953Z,57.70
2022-09-17T19:34:38.180Z,57.70
2022-09-17T19:37:09.837Z,57.93
2022-09-17T19:39:41.502Z,57.91
2022-09-17T19:42:13.244Z,58.40
2022-09-17T19:44:44.904Z,58.46
2022-09-17T19:47:16.534Z,58.66
2022-09-17T19:49:50.914Z,58.99
2022-09-17T19:52:26.606Z,58.80
2022-09-17T19:54:58.162Z,59.23
2022-09-17T19:57:29.862Z,59.54
2022-09-17T20:00:01.620Z,59.82
2022-09-17T20:02:42.166Z,59.47
2022-09-17T20:05:13.829Z,59.70
2022-09-17T20:07:45.536Z,59.92
2022-09-17T20:10:17.152Z,59.88
2022-09-17T20:12:48.828Z,59.73
2022-09-17T20:15:20.524Z,60.15
2022-09-17T20:17:52.237Z,60.76
2022-09-17T20:20:28.329Z,60.21
2022-09-17T20:22:59.963Z,60.65
2022-09-17T20:25:31.534Z,60.30
2022-09-17T20:28:04.066Z,60.62
2022-09-17T20:30:35.675Z,60.29
2022-09-17T20:33:07.329Z,60.39
2022-09-17T20:35:39.156Z,60.54
2022-09-17T20:41:09.695Z,60.72
2022-09-17T20:43:43.655Z,60.52
2022-09-17T20:46:16.709Z,60.10
2022-09-17T20:48:52.597Z,59.95
2022-09-17T20:51:26.839Z,60.08
2022-09-17T20:53:59.530Z,59.88
2022-09-17T20:56:35.320Z,60.01
2022-09-17T20:59:24.862Z,60.14
2022-09-17T21:02:00.979Z,60.51
2022-09-17T21:04:32.857Z,60.08
2022-09-17T21:07:04.910Z,60.27
2022-09-17T21:09:41.843Z,60.15
2022-09-17T21:12:13.546Z,60.06
2022-09-17T21:14:45.227Z,60.28
2022-09-17T21:17:19.716Z,59.96
2022-09-17T21:19:52.567Z,60.40
2022-09-17T21:22:24.147Z,59.93
2022-09-17T21:24:57.213Z,59.97
2022-09-17T21:27:31.818Z,60.47
2022-09-17T21:30:06.373Z,60.44
2022-09-17T21:32:38.250Z,61.06
2022-09-17T21:35:09.883Z,60.78
2022-09-17T21:37:41.455Z,61.06
2022-09-17T21:40:13.141Z,60.51
2022-09-17T21:42:44.759Z,60.98
2022-09-17T21:45:16.381Z,61.26
2022-09-17T21:47:47.962Z,61.64
2022-09-17T21:50:19.635Z,61.95
2022-09-17T21:52:51.243Z,62.34
2022-09-17T21:55:22.865Z,62.99
2022-09-17T21:57:54.502Z,63.52
2022-09-17T22:00:26.813Z,63.99
2022-09-17T22:02:58.896Z,64.18
2022-09-17T22:05:32.916Z,64.29
2022-09-17T22:08:05.578Z,64.49
2022-09-17T22:10:39.265Z,64.65
2022-09-17T22:13:13.613Z,65.02
2022-09-17T22:15:56.290Z,65.33
2022-09-17T22:18:27.990Z,65.33
2022-09-17T22:21:01.918Z,65.48
2022-09-17T22:23:33.521Z,65.62
2022-09-17T22:26:06.926Z,65.59
2022-09-17T22:28:38.619Z,65.46
2022-09-17T22:31:12.401Z,65.90
2022-09-17T22:33:46.348Z,65.85
2022-09-17T22:36:21.125Z,65.74
2022-09-17T22:38:56.585Z,65.94
2022-09-17T22:41:29.470Z,65.85
2022-09-17T22:44:05.387Z,65.98
2022-09-17T22:46:41.877Z,65.71
2022-09-17T22:49:14.385Z,65.48
2022-09-17T22:51:47.186Z,65.54
2022-09-17T22:54:22.438Z,65.50
2022-09-17T22:56:54.297Z,65.21
2022-09-17T22:59:28.902Z,65.35
2022-09-17T23:02:03.205Z,65.30
2022-09-17T23:04:34.892Z,65.07
2022-09-17T23:07:09.114Z,65.27
2022-09-17T23:09:40.698Z,65.21
2022-09-17T23:12:12.364Z,64.93
2022-09-17T23:14:43.920Z,64.91
2022-09-17T23:17:15.610Z,64.93
2022-09-17T23:19:47.190Z,64.73
2022-09-17T23:22:20.955Z,64.08
2022-09-17T23:24:52.571Z,64.48
2022-09-17T23:27:24.221Z,64.23
2022-09-17T23:29:55.797Z,64.24
2022-09-17T23:32:27.624Z,64.11
2022-09-17T23:34:59.219Z,63.81
2022-09-17T23:37:33.328Z,63.70
2022-09-17T23:40:07.016Z,63.73
2022-09-17T23:42:40.751Z,63.59
2022-09-17T23:45:12.329Z,63.14
2022-09-17T23:47:43.966Z,63.41
2022-09-17T23:50:15.666Z,63.03
2022-09-17T23:52:47.265Z,62.83
2022-09-17T23:55:18.827Z,62.78
2022-09-17T23:57:50.461Z,62.79
